Mooney, MT

7:07 AM MDT on July 24, 2014 (GMT -0600)
Mooney (KBTM) Elev 5545 ft | 45.95 °N, 112.50 °W | Change Station

Current weather conditions updated 14 minutes ago

Clear
Clear
49 °F
Feels Like 49 °F
N
4
Wind Variable Wind from SE

Today is forecast to be Much Cooler than yesterday.

Today
High -- | Low -- °F
--% Chance of Precip.
Yesterday
High -- | Low -- °F
Precip. -- in
6:03 AM 9:08 PM
Waning Crescent, 5% visible
Pressure 29.91 in
Visibility 10.0 miles
Clouds Clear
Dew Point 45 °F
Humidity 86%
Rainfall 0.00 in
Snow Depth 1 in
UV 0 out of 12
Pollen 5.40 out of 12
Air Quality Not available.
Flu Activity Not available.
METAR KBTM 241253Z AUTO 13003KT 10SM CLR 09/07 A3007 RMK AO2 SLP128 T00940072

More Conditions Fewer Conditions

Pressure 29.91 in
Visibility 10.0 miles
Clouds Clear
Dew Point 45 °F
Humidity 86%
Rainfall 0.00 in
Snow Depth 1 in
UV 0 out of 12
Pollen 5.40 out of 12
Air Quality Not available.
Flu Activity Not available.
METAR KBTM 241253Z AUTO 13003KT 10SM CLR 09/07 A3007 RMK AO2 SLP128 T00940072

More Conditions Fewer Conditions

10-Day Weather Forecast

Almanac

Astronomy

Jul. 24, 2014 Rise Set
Actual Time 6:03 AM MDT 9:08 PM MDT
Civil Twilight 5:27 AM MDT 9:44 PM MDT
Nautical Twilight 4:41 AM MDT 10:30 PM MDT
Astronomical Twilight 3:45 AM MDT 11:25 PM MDT
Moon 4:15 AM MDT 7:24 PM MDT
Length of Visible Light 16h 16m
Length of Day
15h 05m
Tomorrow will be 2m 13s shorter.
Waning Crescent, 5% of the Moon is Illuminated
Today
Waning Crescent
Jul 26
New
Aug 3
First Quarter
Aug 10
Full
Aug 17
Last Quarter

Today's Extremes

State Highs State Lows

Community

WunderPhotos

Upload Photos

1,736,993 photos uploaded!

Nearby

Snow Depth

Station Depth Elevation
Basin Creek 1 in 7180 ft
Brackett Creek 0 in 7320 ft
Barker Lakes 0 in 8250 ft
Albro Lake 0 in 8300 ft
Peterson Meadows 1 in 7200 ft

Earthquake Activity

City Distance Mag. Time & Date
No recent earthquake activity has been reported nearby.
Minimum magnitude displayed is 2.5.

Coastal Water Temperatures

Place Temperature
No Stations Reporting

Nearby Weather Stations

Station Location Temp. Dew Point Humidity Wind Precip. Elev Updated Type
Kelley Mine Yard, Butte, MT 52.5 °F 48 °F 85% North  at  0.0 mph 0.00 in / hr 6138 ft 7:05 AM MDT Normal
Warm Springs Ponds, Opportunity, MT 56.3 °F 50 °F 78% West  at  5.0 mph - / hr 4900 ft 7:05 AM MDT Normal
Warm Springs Ponds (Pond 3), Opportunity, MT 58.8 °F 51 °F 76% WNW  at  8.0 mph 0.00 in / hr 4885 ft 6:54 AM MDT Normal
Triangle Anaconda, Anaconda, MT 54.8 °F 48 °F 77% West  at  0.0 mph 0.00 in / hr 5104 ft 7:05 AM MDT Normal
goosetown 2, Anaconda, MT 55.8 °F 48 °F 75% East  at  3.0 mph 0.00 in / hr 5240 ft 7:07 AM MDT Normal
RAWS GALENA MT, Boulder, MT 53 °F 44 °F 72% West  at  11 mph 0.00 in / hr 6859 ft 5:47 AM MDT MADIS

Show More Stations Show Fewer Stations